sensor_id;sensor_type;location;lat;lon;timestamp;P1;durP1;ratioP1;P2;durP2;ratioP2
26690;SDS011;14307;51.718;8.938;2022-07-23T00:00:18;31.77;;;20.20;;
26690;SDS011;14307;51.718;8.938;2022-07-23T00:02:45;30.17;;;20.08;;
26690;SDS011;14307;51.718;8.938;2022-07-23T00:05:13;30.08;;;18.67;;
26690;SDS011;14307;51.718;8.938;2022-07-23T00:07:39;28.40;;;19.65;;
26690;SDS011;14307;51.718;8.938;2022-07-23T00:10:06;27.58;;;17.45;;
26690;SDS011;14307;51.718;8.938;2022-07-23T00:12:34;29.92;;;20.75;;
26690;SDS011;14307;51.718;8.938;2022-07-23T00:15:01;28.60;;;18.95;;
26690;SDS011;14307;51.718;8.938;2022-07-23T00:17:28;29.35;;;19.63;;
26690;SDS011;14307;51.718;8.938;2022-07-23T00:19:55;29.10;;;18.55;;
26690;SDS011;14307;51.718;8.938;2022-07-23T00:22:22;27.05;;;18.85;;
26690;SDS011;14307;51.718;8.938;2022-07-23T00:24:49;33.45;;;18.42;;
26690;SDS011;14307;51.718;8.938;2022-07-23T00:27:36;27.65;;;20.02;;
26690;SDS011;14307;51.718;8.938;2022-07-23T00:30:03;30.77;;;19.77;;
26690;SDS011;14307;51.718;8.938;2022-07-23T00:32:30;29.38;;;19.83;;
26690;SDS011;14307;51.718;8.938;2022-07-23T00:35:19;34.22;;;20.42;;
26690;SDS011;14307;51.718;8.938;2022-07-23T00:37:47;36.25;;;20.05;;
26690;SDS011;14307;51.718;8.938;2022-07-23T00:40:14;35.58;;;22.02;;
26690;SDS011;14307;51.718;8.938;2022-07-23T00:42:41;37.95;;;20.90;;
26690;SDS011;14307;51.718;8.938;2022-07-23T00:45:09;33.95;;;20.73;;
26690;SDS011;14307;51.718;8.938;2022-07-23T00:47:36;32.20;;;19.80;;
26690;SDS011;14307;51.718;8.938;2022-07-23T00:50:04;36.35;;;20.90;;
26690;SDS011;14307;51.718;8.938;2022-07-23T00:52:32;38.53;;;21.38;;
26690;SDS011;14307;51.718;8.938;2022-07-23T00:55:00;36.15;;;21.83;;
26690;SDS011;14307;51.718;8.938;2022-07-23T00:57:27;35.45;;;21.80;;
26690;SDS011;14307;51.718;8.938;2022-07-23T00:59:54;33.50;;;21.73;;
26690;SDS011;14307;51.718;8.938;2022-07-23T01:02:21;43.10;;;24.60;;
26690;SDS011;14307;51.718;8.938;2022-07-23T01:04:48;34.83;;;22.45;;
26690;SDS011;14307;51.718;8.938;2022-07-23T01:07:15;35.03;;;22.35;;
26690;SDS011;14307;51.718;8.938;2022-07-23T01:09:43;36.83;;;24.30;;
26690;SDS011;14307;51.718;8.938;2022-07-23T01:12:11;33.85;;;22.42;;
26690;SDS011;14307;51.718;8.938;2022-07-23T01:14:38;38.22;;;22.50;;
26690;SDS011;14307;51.718;8.938;2022-07-23T01:17:05;31.88;;;22.30;;
26690;SDS011;14307;51.718;8.938;2022-07-23T01:19:32;36.83;;;23.27;;
26690;SDS011;14307;51.718;8.938;2022-07-23T01:21:58;36.13;;;23.25;;
26690;SDS011;14307;51.718;8.938;2022-07-23T01:24:28;37.25;;;22.98;;
26690;SDS011;14307;51.718;8.938;2022-07-23T01:26:59;44.38;;;24.05;;
26690;SDS011;14307;51.718;8.938;2022-07-23T01:29:26;40.83;;;23.20;;
26690;SDS011;14307;51.718;8.938;2022-07-23T01:31:54;35.55;;;23.98;;
26690;SDS011;14307;51.718;8.938;2022-07-23T01:34:21;44.75;;;25.58;;
26690;SDS011;14307;51.718;8.938;2022-07-23T01:36:48;47.75;;;23.20;;
26690;SDS011;14307;51.718;8.938;2022-07-23T01:39:15;48.30;;;23.52;;
26690;SDS011;14307;51.718;8.938;2022-07-23T01:41:42;38.25;;;21.50;;
26690;SDS011;14307;51.718;8.938;2022-07-23T01:44:14;47.83;;;23.08;;
26690;SDS011;14307;51.718;8.938;2022-07-23T01:46:42;50.33;;;21.90;;
26690;SDS011;14307;51.718;8.938;2022-07-23T01:49:09;42.13;;;22.80;;
26690;SDS011;14307;51.718;8.938;2022-07-23T01:51:55;34.47;;;22.75;;
26690;SDS011;14307;51.718;8.938;2022-07-23T01:54:33;51.60;;;23.80;;
26690;SDS011;14307;51.718;8.938;2022-07-23T01:57:03;46.13;;;24.25;;
26690;SDS011;14307;51.718;8.938;2022-07-23T01:59:30;48.28;;;24.45;;
26690;SDS011;14307;51.718;8.938;2022-07-23T02:01:57;42.42;;;23.75;;
26690;SDS011;14307;51.718;8.938;2022-07-23T02:04:24;39.42;;;24.27;;
26690;SDS011;14307;51.718;8.938;2022-07-23T02:06:52;54.38;;;25.55;;
26690;SDS011;14307;51.718;8.938;2022-07-23T02:09:19;42.83;;;26.42;;
26690;SDS011;14307;51.718;8.938;2022-07-23T02:11:46;45.72;;;25.83;;
26690;SDS011;14307;51.718;8.938;2022-07-23T02:14:13;50.05;;;26.35;;
26690;SDS011;14307;51.718;8.938;2022-07-23T02:16:40;47.08;;;26.95;;
26690;SDS011;14307;51.718;8.938;2022-07-23T02:19:07;49.63;;;26.45;;
26690;SDS011;14307;51.718;8.938;2022-07-23T02:21:35;47.33;;;25.83;;
26690;SDS011;14307;51.718;8.938;2022-07-23T02:24:03;42.13;;;26.15;;
26690;SDS011;14307;51.718;8.938;2022-07-23T02:26:30;50.47;;;26.25;;
26690;SDS011;14307;51.718;8.938;2022-07-23T02:29:03;56.88;;;26.67;;
26690;SDS011;14307;51.718;8.938;2022-07-23T02:31:31;49.40;;;28.13;;
26690;SDS011;14307;51.718;8.938;2022-07-23T02:33:58;51.97;;;27.65;;
26690;SDS011;14307;51.718;8.938;2022-07-23T02:36:25;56.42;;;28.10;;
26690;SDS011;14307;51.718;8.938;2022-07-23T02:38:53;54.53;;;28.60;;
26690;SDS011;14307;51.718;8.938;2022-07-23T02:41:20;61.95;;;29.48;;
26690;SDS011;14307;51.718;8.938;2022-07-23T02:43:47;58.28;;;29.20;;
26690;SDS011;14307;51.718;8.938;2022-07-23T02:46:14;65.90;;;33.50;;
26690;SDS011;14307;51.718;8.938;2022-07-23T02:48:42;71.93;;;33.35;;
26690;SDS011;14307;51.718;8.938;2022-07-23T02:51:09;72.28;;;34.35;;
26690;SDS011;14307;51.718;8.938;2022-07-23T02:53:44;61.42;;;32.15;;
26690;SDS011;14307;51.718;8.938;2022-07-23T02:56:11;67.00;;;32.30;;
26690;SDS011;14307;51.718;8.938;2022-07-23T02:58:40;63.08;;;32.42;;
26690;SDS011;14307;51.718;8.938;2022-07-23T03:01:08;68.38;;;31.75;;
26690;SDS011;14307;51.718;8.938;2022-07-23T03:03:35;75.97;;;35.97;;
26690;SDS011;14307;51.718;8.938;2022-07-23T03:06:02;74.65;;;35.47;;
26690;SDS011;14307;51.718;8.938;2022-07-23T03:08:28;70.40;;;32.45;;
26690;SDS011;14307;51.718;8.938;2022-07-23T03:10:55;72.90;;;34.17;;
26690;SDS011;14307;51.718;8.938;2022-07-23T03:13:22;86.90;;;35.80;;
26690;SDS011;14307;51.718;8.938;2022-07-23T03:15:50;88.05;;;36.97;;
26690;SDS011;14307;51.718;8.938;2022-07-23T03:18:17;80.70;;;37.03;;
26690;SDS011;14307;51.718;8.938;2022-07-23T03:20:44;79.20;;;35.00;;
26690;SDS011;14307;51.718;8.938;2022-07-23T03:23:11;78.47;;;34.20;;
26690;SDS011;14307;51.718;8.938;2022-07-23T03:25:38;62.88;;;32.42;;
26690;SDS011;14307;51.718;8.938;2022-07-23T03:28:05;77.18;;;35.47;;
26690;SDS011;14307;51.718;8.938;2022-07-23T03:30:31;69.32;;;33.47;;
26690;SDS011;14307;51.718;8.938;2022-07-23T03:32:58;87.70;;;37.05;;
26690;SDS011;14307;51.718;8.938;2022-07-23T03:35:25;84.18;;;36.58;;
26690;SDS011;14307;51.718;8.938;2022-07-23T03:38:14;76.95;;;36.88;;
26690;SDS011;14307;51.718;8.938;2022-07-23T03:40:41;90.28;;;38.90;;
26690;SDS011;14307;51.718;8.938;2022-07-23T03:43:08;102.93;;;40.80;;
26690;SDS011;14307;51.718;8.938;2022-07-23T03:45:35;116.55;;;41.00;;
26690;SDS011;14307;51.718;8.938;2022-07-23T03:48:03;114.72;;;42.03;;
26690;SDS011;14307;51.718;8.938;2022-07-23T03:50:30;87.32;;;38.28;;
26690;SDS011;14307;51.718;8.938;2022-07-23T03:52:56;90.57;;;38.70;;
26690;SDS011;14307;51.718;8.938;2022-07-23T03:55:23;100.25;;;40.65;;
26690;SDS011;14307;51.718;8.938;2022-07-23T03:57:50;106.60;;;41.08;;
26690;SDS011;14307;51.718;8.938;2022-07-23T04:00:17;102.03;;;38.45;;
26690;SDS011;14307;51.718;8.938;2022-07-23T04:02:48;95.07;;;39.72;;
26690;SDS011;14307;51.718;8.938;2022-07-23T04:05:16;91.57;;;38.83;;
26690;SDS011;14307;51.718;8.938;2022-07-23T04:07:47;98.80;;;41.50;;
26690;SDS011;14307;51.718;8.938;2022-07-23T04:10:14;106.78;;;42.55;;
26690;SDS011;14307;51.718;8.938;2022-07-23T04:12:41;106.35;;;41.15;;
26690;SDS011;14307;51.718;8.938;2022-07-23T04:15:09;127.82;;;42.45;;
26690;SDS011;14307;51.718;8.938;2022-07-23T04:17:36;108.72;;;42.88;;
26690;SDS011;14307;51.718;8.938;2022-07-23T04:20:03;102.22;;;43.50;;
26690;SDS011;14307;51.718;8.938;2022-07-23T04:22:36;108.50;;;45.40;;
26690;SDS011;14307;51.718;8.938;2022-07-23T04:25:03;119.15;;;44.38;;
26690;SDS011;14307;51.718;8.938;2022-07-23T04:27:30;111.43;;;43.30;;
26690;SDS011;14307;51.718;8.938;2022-07-23T04:29:59;133.95;;;45.63;;
26690;SDS011;14307;51.718;8.938;2022-07-23T04:32:26;114.93;;;42.45;;
26690;SDS011;14307;51.718;8.938;2022-07-23T04:34:53;93.15;;;41.15;;
26690;SDS011;14307;51.718;8.938;2022-07-23T04:37:20;113.13;;;44.60;;
26690;SDS011;14307;51.718;8.938;2022-07-23T04:39:47;106.93;;;47.20;;
26690;SDS011;14307;51.718;8.938;2022-07-23T04:42:13;102.32;;;44.67;;
26690;SDS011;14307;51.718;8.938;2022-07-23T04:44:40;119.90;;;48.25;;
26690;SDS011;14307;51.718;8.938;2022-07-23T04:47:08;102.25;;;44.63;;
26690;SDS011;14307;51.718;8.938;2022-07-23T04:49:35;111.13;;;45.15;;
26690;SDS011;14307;51.718;8.938;2022-07-23T04:52:02;103.05;;;43.05;;
26690;SDS011;14307;51.718;8.938;2022-07-23T04:54:29;100.55;;;44.53;;
26690;SDS011;14307;51.718;8.938;2022-07-23T04:56:55;101.75;;;44.33;;
26690;SDS011;14307;51.718;8.938;2022-07-23T04:59:22;100.32;;;44.45;;
26690;SDS011;14307;51.718;8.938;2022-07-23T05:01:55;90.72;;;41.58;;
26690;SDS011;14307;51.718;8.938;2022-07-23T05:04:22;92.60;;;41.80;;
26690;SDS011;14307;51.718;8.938;2022-07-23T05:06:49;98.20;;;43.88;;
26690;SDS011;14307;51.718;8.938;2022-07-23T05:09:16;89.68;;;41.83;;
26690;SDS011;14307;51.718;8.938;2022-07-23T05:11:43;85.57;;;42.35;;
26690;SDS011;14307;51.718;8.938;2022-07-23T05:14:10;83.25;;;41.08;;
26690;SDS011;14307;51.718;8.938;2022-07-23T05:16:38;57.50;;;36.17;;
26690;SDS011;14307;51.718;8.938;2022-07-23T05:19:11;72.72;;;37.55;;
26690;SDS011;14307;51.718;8.938;2022-07-23T05:21:38;56.28;;;35.42;;
26690;SDS011;14307;51.718;8.938;2022-07-23T05:24:05;48.15;;;32.95;;
26690;SDS011;14307;51.718;8.938;2022-07-23T05:26:33;50.35;;;32.60;;
26690;SDS011;14307;51.718;8.938;2022-07-23T05:29:01;36.05;;;27.02;;
26690;SDS011;14307;51.718;8.938;2022-07-23T05:31:28;44.25;;;29.75;;
26690;SDS011;14307;51.718;8.938;2022-07-23T05:33:56;38.25;;;29.15;;
26690;SDS011;14307;51.718;8.938;2022-07-23T05:36:23;42.47;;;30.58;;
26690;SDS011;14307;51.718;8.938;2022-07-23T05:38:53;33.60;;;29.98;;
26690;SDS011;14307;51.718;8.938;2022-07-23T05:41:21;37.88;;;29.70;;
26690;SDS011;14307;51.718;8.938;2022-07-23T05:43:48;32.60;;;28.63;;
26690;SDS011;14307;51.718;8.938;2022-07-23T05:46:15;32.67;;;29.48;;
26690;SDS011;14307;51.718;8.938;2022-07-23T05:48:46;35.42;;;31.10;;
26690;SDS011;14307;51.718;8.938;2022-07-23T05:51:38;34.95;;;31.33;;
26690;SDS011;14307;51.718;8.938;2022-07-23T05:54:05;34.05;;;30.52;;
26690;SDS011;14307;51.718;8.938;2022-07-23T05:56:36;30.63;;;27.40;;
26690;SDS011;14307;51.718;8.938;2022-07-23T05:59:02;32.70;;;29.17;;
26690;SDS011;14307;51.718;8.938;2022-07-23T06:01:30;33.20;;;29.77;;
26690;SDS011;14307;51.718;8.938;2022-07-23T06:04:09;29.35;;;26.80;;
26690;SDS011;14307;51.718;8.938;2022-07-23T06:06:40;32.17;;;28.88;;
26690;SDS011;14307;51.718;8.938;2022-07-23T06:09:09;30.20;;;27.23;;
26690;SDS011;14307;51.718;8.938;2022-07-23T06:11:40;30.10;;;27.40;;
26690;SDS011;14307;51.718;8.938;2022-07-23T06:14:06;27.90;;;25.25;;
26690;SDS011;14307;51.718;8.938;2022-07-23T06:16:53;29.02;;;26.48;;
26690;SDS011;14307;51.718;8.938;2022-07-23T06:19:20;29.67;;;26.85;;
26690;SDS011;14307;51.718;8.938;2022-07-23T06:21:48;33.13;;;29.67;;
26690;SDS011;14307;51.718;8.938;2022-07-23T06:24:16;30.33;;;27.45;;
26690;SDS011;14307;51.718;8.938;2022-07-23T06:26:43;28.55;;;25.95;;
26690;SDS011;14307;51.718;8.938;2022-07-23T06:29:09;28.42;;;25.80;;
26690;SDS011;14307;51.718;8.938;2022-07-23T06:31:36;29.13;;;26.42;;
26690;SDS011;14307;51.718;8.938;2022-07-23T06:34:03;29.45;;;26.95;;
26690;SDS011;14307;51.718;8.938;2022-07-23T06:36:30;28.55;;;26.02;;
26690;SDS011;14307;51.718;8.938;2022-07-23T06:38:57;28.33;;;25.98;;
26690;SDS011;14307;51.718;8.938;2022-07-23T06:41:24;27.42;;;25.13;;
26690;SDS011;14307;51.718;8.938;2022-07-23T06:43:51;28.20;;;25.60;;
26690;SDS011;14307;51.718;8.938;2022-07-23T06:46:20;26.88;;;24.48;;
26690;SDS011;14307;51.718;8.938;2022-07-23T06:48:48;26.67;;;24.30;;
26690;SDS011;14307;51.718;8.938;2022-07-23T06:51:15;28.00;;;25.50;;
26690;SDS011;14307;51.718;8.938;2022-07-23T06:53:42;29.10;;;26.63;;
26690;SDS011;14307;51.718;8.938;2022-07-23T06:56:09;29.70;;;27.08;;
26690;SDS011;14307;51.718;8.938;2022-07-23T06:58:38;28.88;;;26.67;;
26690;SDS011;14307;51.718;8.938;2022-07-23T07:01:04;28.75;;;25.75;;
26690;SDS011;14307;51.718;8.938;2022-07-23T07:03:32;26.73;;;24.50;;
26690;SDS011;14307;51.718;8.938;2022-07-23T07:05:58;28.80;;;26.45;;
26690;SDS011;14307;51.718;8.938;2022-07-23T07:08:25;27.50;;;25.30;;
26690;SDS011;14307;51.718;8.938;2022-07-23T07:10:52;28.17;;;25.65;;
26690;SDS011;14307;51.718;8.938;2022-07-23T07:13:19;32.13;;;29.17;;
26690;SDS011;14307;51.718;8.938;2022-07-23T07:15:46;29.75;;;27.30;;
26690;SDS011;14307;51.718;8.938;2022-07-23T07:18:12;27.63;;;25.23;;
26690;SDS011;14307;51.718;8.938;2022-07-23T07:20:39;26.63;;;24.20;;
26690;SDS011;14307;51.718;8.938;2022-07-23T07:23:06;27.48;;;25.10;;
26690;SDS011;14307;51.718;8.938;2022-07-23T07:25:33;26.92;;;24.70;;
26690;SDS011;14307;51.718;8.938;2022-07-23T07:28:00;30.38;;;27.60;;
26690;SDS011;14307;51.718;8.938;2022-07-23T07:30:27;28.33;;;26.02;;
26690;SDS011;14307;51.718;8.938;2022-07-23T07:32:59;29.98;;;27.15;;
26690;SDS011;14307;51.718;8.938;2022-07-23T07:35:26;28.95;;;26.35;;
26690;SDS011;14307;51.718;8.938;2022-07-23T07:37:53;28.65;;;26.25;;
26690;SDS011;14307;51.718;8.938;2022-07-23T07:40:20;28.35;;;25.85;;
26690;SDS011;14307;51.718;8.938;2022-07-23T07:42:49;28.23;;;25.95;;
26690;SDS011;14307;51.718;8.938;2022-07-23T07:45:19;29.73;;;27.25;;
26690;SDS011;14307;51.718;8.938;2022-07-23T07:47:47;29.77;;;26.95;;
26690;SDS011;14307;51.718;8.938;2022-07-23T07:50:13;28.85;;;26.23;;
26690;SDS011;14307;51.718;8.938;2022-07-23T07:52:40;28.20;;;25.58;;
26690;SDS011;14307;51.718;8.938;2022-07-23T07:55:07;28.95;;;26.48;;
26690;SDS011;14307;51.718;8.938;2022-07-23T07:57:36;28.58;;;26.13;;
26690;SDS011;14307;51.718;8.938;2022-07-23T08:00:06;28.48;;;26.10;;
26690;SDS011;14307;51.718;8.938;2022-07-23T08:02:51;27.20;;;24.90;;
26690;SDS011;14307;51.718;8.938;2022-07-23T08:05:20;26.58;;;24.33;;
26690;SDS011;14307;51.718;8.938;2022-07-23T08:07:54;28.98;;;26.55;;
26690;SDS011;14307;51.718;8.938;2022-07-23T08:10:22;28.38;;;26.20;;
26690;SDS011;14307;51.718;8.938;2022-07-23T08:12:50;27.55;;;25.38;;
26690;SDS011;14307;51.718;8.938;2022-07-23T08:15:20;30.17;;;27.45;;
26690;SDS011;14307;51.718;8.938;2022-07-23T08:17:48;28.25;;;25.95;;
26690;SDS011;14307;51.718;8.938;2022-07-23T08:20:16;29.08;;;26.58;;
26690;SDS011;14307;51.718;8.938;2022-07-23T08:25:37;27.88;;;25.23;;
26690;SDS011;14307;51.718;8.938;2022-07-23T08:28:08;28.10;;;26.05;;
26690;SDS011;14307;51.718;8.938;2022-07-23T08:30:37;27.02;;;25.02;;
26690;SDS011;14307;51.718;8.938;2022-07-23T08:35:59;27.70;;;25.63;;
26690;SDS011;14307;51.718;8.938;2022-07-23T08:38:28;28.08;;;25.92;;
26690;SDS011;14307;51.718;8.938;2022-07-23T08:40:55;28.15;;;25.98;;
26690;SDS011;14307;51.718;8.938;2022-07-23T08:43:26;28.13;;;26.00;;
26690;SDS011;14307;51.718;8.938;2022-07-23T08:45:56;28.40;;;26.50;;
26690;SDS011;14307;51.718;8.938;2022-07-23T08:48:27;27.20;;;25.10;;
26690;SDS011;14307;51.718;8.938;2022-07-23T08:50:58;27.67;;;25.17;;
26690;SDS011;14307;51.718;8.938;2022-07-23T08:53:29;26.65;;;24.42;;
26690;SDS011;14307;51.718;8.938;2022-07-23T08:55:57;27.50;;;25.58;;
26690;SDS011;14307;51.718;8.938;2022-07-23T08:58:27;30.17;;;27.77;;
26690;SDS011;14307;51.718;8.938;2022-07-23T09:00:54;28.90;;;27.02;;
26690;SDS011;14307;51.718;8.938;2022-07-23T09:03:27;26.98;;;24.98;;
26690;SDS011;14307;51.718;8.938;2022-07-23T09:05:55;27.23;;;25.23;;
26690;SDS011;14307;51.718;8.938;2022-07-23T09:08:24;27.52;;;25.42;;
26690;SDS011;14307;51.718;8.938;2022-07-23T09:11:00;26.23;;;24.45;;
26690;SDS011;14307;51.718;8.938;2022-07-23T09:13:47;26.95;;;24.98;;
26690;SDS011;14307;51.718;8.938;2022-07-23T09:16:17;26.23;;;24.20;;
26690;SDS011;14307;51.718;8.938;2022-07-23T09:18:53;27.10;;;24.92;;
26690;SDS011;14307;51.718;8.938;2022-07-23T09:26:30;27.08;;;25.10;;
26690;SDS011;14307;51.718;8.938;2022-07-23T09:31:45;26.65;;;24.75;;
26690;SDS011;14307;51.718;8.938;2022-07-23T09:34:15;26.90;;;25.13;;
26690;SDS011;14307;51.718;8.938;2022-07-23T09:36:44;26.40;;;24.50;;
26690;SDS011;14307;51.718;8.938;2022-07-23T09:39:11;28.63;;;26.40;;
26690;SDS011;14307;51.718;8.938;2022-07-23T09:41:41;27.77;;;25.95;;
26690;SDS011;14307;51.718;8.938;2022-07-23T09:44:11;28.63;;;26.42;;
26690;SDS011;14307;51.718;8.938;2022-07-23T09:46:43;24.50;;;22.90;;
26690;SDS011;14307;51.718;8.938;2022-07-23T09:49:21;26.73;;;24.77;;
26690;SDS011;14307;51.718;8.938;2022-07-23T09:51:55;26.83;;;24.70;;
26690;SDS011;14307;51.718;8.938;2022-07-23T09:57:05;26.70;;;24.83;;
26690;SDS011;14307;51.718;8.938;2022-07-23T09:59:41;27.17;;;25.33;;
26690;SDS011;14307;51.718;8.938;2022-07-23T10:02:10;28.48;;;26.25;;
26690;SDS011;14307;51.718;8.938;2022-07-23T10:04:55;27.08;;;25.00;;
26690;SDS011;14307;51.718;8.938;2022-07-23T10:07:31;25.73;;;23.92;;
26690;SDS011;14307;51.718;8.938;2022-07-23T10:10:18;26.95;;;24.73;;
26690;SDS011;14307;51.718;8.938;2022-07-23T10:13:06;27.67;;;25.60;;
26690;SDS011;14307;51.718;8.938;2022-07-23T10:15:47;26.08;;;24.27;;
26690;SDS011;14307;51.718;8.938;2022-07-23T10:18:14;27.15;;;25.10;;
26690;SDS011;14307;51.718;8.938;2022-07-23T10:20:41;28.20;;;26.38;;
26690;SDS011;14307;51.718;8.938;2022-07-23T10:25:55;26.60;;;24.77;;
26690;SDS011;14307;51.718;8.938;2022-07-23T10:36:58;27.15;;;25.17;;
26690;SDS011;14307;51.718;8.938;2022-07-23T10:39:32;27.30;;;25.45;;
26690;SDS011;14307;51.718;8.938;2022-07-23T10:42:16;26.92;;;25.17;;
26690;SDS011;14307;51.718;8.938;2022-07-23T10:44:44;27.77;;;25.88;;
26690;SDS011;14307;51.718;8.938;2022-07-23T10:47:27;28.48;;;26.45;;
26690;SDS011;14307;51.718;8.938;2022-07-23T10:49:58;27.20;;;25.38;;
26690;SDS011;14307;51.718;8.938;2022-07-23T10:58:00;26.90;;;24.92;;
26690;SDS011;14307;51.718;8.938;2022-07-23T11:00:29;27.50;;;25.55;;
26690;SDS011;14307;51.718;8.938;2022-07-23T11:03:05;29.10;;;27.15;;
26690;SDS011;14307;51.718;8.938;2022-07-23T11:05:55;26.63;;;24.77;;
26690;SDS011;14307;51.718;8.938;2022-07-23T11:08:22;26.40;;;24.45;;
26690;SDS011;14307;51.718;8.938;2022-07-23T11:10:53;26.73;;;24.58;;
26690;SDS011;14307;51.718;8.938;2022-07-23T11:13:28;27.77;;;25.92;;
26690;SDS011;14307;51.718;8.938;2022-07-23T11:18:53;27.33;;;25.15;;
26690;SDS011;14307;51.718;8.938;2022-07-23T11:24:10;26.85;;;24.95;;
26690;SDS011;14307;51.718;8.938;2022-07-23T11:26:52;27.98;;;26.15;;
26690;SDS011;14307;51.718;8.938;2022-07-23T11:34:38;27.38;;;25.73;;
26690;SDS011;14307;51.718;8.938;2022-07-23T11:37:06;28.55;;;26.50;;
26690;SDS011;14307;51.718;8.938;2022-07-23T11:39:37;28.17;;;26.40;;
26690;SDS011;14307;51.718;8.938;2022-07-23T11:42:06;27.48;;;25.60;;
26690;SDS011;14307;51.718;8.938;2022-07-23T11:44:37;27.73;;;25.70;;
26690;SDS011;14307;51.718;8.938;2022-07-23T11:47:06;28.83;;;26.83;;
26690;SDS011;14307;51.718;8.938;2022-07-23T11:49:34;28.73;;;26.60;;
26690;SDS011;14307;51.718;8.938;2022-07-23T11:52:09;29.08;;;27.17;;
26690;SDS011;14307;51.718;8.938;2022-07-23T11:54:57;26.15;;;24.45;;
26690;SDS011;14307;51.718;8.938;2022-07-23T11:57:34;27.52;;;25.75;;
26690;SDS011;14307;51.718;8.938;2022-07-23T12:02:40;28.90;;;26.88;;
26690;SDS011;14307;51.718;8.938;2022-07-23T12:05:19;27.67;;;25.77;;
26690;SDS011;14307;51.718;8.938;2022-07-23T12:07:48;26.58;;;24.88;;
26690;SDS011;14307;51.718;8.938;2022-07-23T12:12:51;25.85;;;24.15;;
26690;SDS011;14307;51.718;8.938;2022-07-23T12:15:22;26.50;;;24.85;;
26690;SDS011;14307;51.718;8.938;2022-07-23T12:17:51;27.70;;;25.65;;
26690;SDS011;14307;51.718;8.938;2022-07-23T12:20:21;26.75;;;25.05;;
26690;SDS011;14307;51.718;8.938;2022-07-23T12:22:50;26.70;;;25.08;;
26690;SDS011;14307;51.718;8.938;2022-07-23T12:25:20;26.45;;;24.65;;
26690;SDS011;14307;51.718;8.938;2022-07-23T12:28:04;26.20;;;24.48;;
26690;SDS011;14307;51.718;8.938;2022-07-23T12:30:39;26.95;;;25.00;;
26690;SDS011;14307;51.718;8.938;2022-07-23T12:33:08;27.35;;;25.40;;
26690;SDS011;14307;51.718;8.938;2022-07-23T12:35:38;25.00;;;22.98;;
26690;SDS011;14307;51.718;8.938;2022-07-23T12:38:11;24.40;;;22.80;;
26690;SDS011;14307;51.718;8.938;2022-07-23T12:40:50;24.00;;;22.60;;
26690;SDS011;14307;51.718;8.938;2022-07-23T12:45:49;25.67;;;24.08;;
26690;SDS011;14307;51.718;8.938;2022-07-23T12:50:49;25.20;;;23.60;;
26690;SDS011;14307;51.718;8.938;2022-07-23T12:53:25;24.90;;;23.25;;
26690;SDS011;14307;51.718;8.938;2022-07-23T12:56:02;25.35;;;23.67;;
26690;SDS011;14307;51.718;8.938;2022-07-23T13:01:21;24.10;;;22.70;;
26690;SDS011;14307;51.718;8.938;2022-07-23T13:06:44;24.15;;;22.52;;
26690;SDS011;14307;51.718;8.938;2022-07-23T13:09:24;23.95;;;22.55;;
26690;SDS011;14307;51.718;8.938;2022-07-23T13:11:53;23.77;;;22.17;;
26690;SDS011;14307;51.718;8.938;2022-07-23T13:14:22;23.23;;;21.67;;
26690;SDS011;14307;51.718;8.938;2022-07-23T13:16:52;24.45;;;22.95;;
26690;SDS011;14307;51.718;8.938;2022-07-23T13:19:22;23.95;;;22.58;;
26690;SDS011;14307;51.718;8.938;2022-07-23T13:21:51;24.58;;;22.75;;
26690;SDS011;14307;51.718;8.938;2022-07-23T13:24:18;24.23;;;22.63;;
26690;SDS011;14307;51.718;8.938;2022-07-23T13:26:45;24.00;;;22.50;;
26690;SDS011;14307;51.718;8.938;2022-07-23T13:29:13;23.98;;;22.42;;
26690;SDS011;14307;51.718;8.938;2022-07-23T13:31:42;22.75;;;21.20;;
26690;SDS011;14307;51.718;8.938;2022-07-23T13:34:11;24.92;;;23.13;;
26690;SDS011;14307;51.718;8.938;2022-07-23T13:36:38;24.40;;;22.70;;
26690;SDS011;14307;51.718;8.938;2022-07-23T13:39:05;23.35;;;22.05;;
26690;SDS011;14307;51.718;8.938;2022-07-23T13:41:35;24.05;;;22.55;;
26690;SDS011;14307;51.718;8.938;2022-07-23T13:44:03;21.33;;;19.88;;
26690;SDS011;14307;51.718;8.938;2022-07-23T13:46:30;21.88;;;20.65;;
26690;SDS011;14307;51.718;8.938;2022-07-23T13:48:57;22.52;;;21.25;;
26690;SDS011;14307;51.718;8.938;2022-07-23T13:51:25;23.95;;;22.42;;
26690;SDS011;14307;51.718;8.938;2022-07-23T13:53:54;23.40;;;22.10;;
26690;SDS011;14307;51.718;8.938;2022-07-23T13:56:20;22.20;;;20.73;;
26690;SDS011;14307;51.718;8.938;2022-07-23T13:58:47;24.10;;;22.60;;
26690;SDS011;14307;51.718;8.938;2022-07-23T14:01:17;23.98;;;22.48;;
26690;SDS011;14307;51.718;8.938;2022-07-23T14:03:44;24.25;;;22.73;;
26690;SDS011;14307;51.718;8.938;2022-07-23T14:06:11;23.48;;;22.15;;
26690;SDS011;14307;51.718;8.938;2022-07-23T14:08:45;22.52;;;21.20;;
26690;SDS011;14307;51.718;8.938;2022-07-23T14:11:13;24.30;;;22.90;;
26690;SDS011;14307;51.718;8.938;2022-07-23T14:13:40;23.48;;;22.08;;
26690;SDS011;14307;51.718;8.938;2022-07-23T14:16:07;23.75;;;22.38;;
26690;SDS011;14307;51.718;8.938;2022-07-23T14:18:34;22.73;;;21.60;;
26690;SDS011;14307;51.718;8.938;2022-07-23T14:21:03;24.48;;;22.98;;
26690;SDS011;14307;51.718;8.938;2022-07-23T14:23:32;24.17;;;22.77;;
26690;SDS011;14307;51.718;8.938;2022-07-23T14:25:59;23.92;;;22.42;;
26690;SDS011;14307;51.718;8.938;2022-07-23T14:28:26;24.70;;;23.10;;
26690;SDS011;14307;51.718;8.938;2022-07-23T14:30:53;25.33;;;23.70;;
26690;SDS011;14307;51.718;8.938;2022-07-23T14:33:20;24.13;;;22.65;;
26690;SDS011;14307;51.718;8.938;2022-07-23T14:35:47;23.02;;;21.55;;
26690;SDS011;14307;51.718;8.938;2022-07-23T14:38:14;23.05;;;21.75;;
26690;SDS011;14307;51.718;8.938;2022-07-23T14:40:42;23.85;;;22.48;;
26690;SDS011;14307;51.718;8.938;2022-07-23T14:43:10;22.60;;;21.23;;
26690;SDS011;14307;51.718;8.938;2022-07-23T14:45:37;23.85;;;22.45;;
26690;SDS011;14307;51.718;8.938;2022-07-23T14:48:05;23.42;;;21.80;;
26690;SDS011;14307;51.718;8.938;2022-07-23T14:50:33;22.55;;;21.20;;
26690;SDS011;14307;51.718;8.938;2022-07-23T14:53:00;23.02;;;21.67;;
26690;SDS011;14307;51.718;8.938;2022-07-23T14:55:27;23.85;;;22.33;;
26690;SDS011;14307;51.718;8.938;2022-07-23T14:57:55;22.50;;;21.05;;
26690;SDS011;14307;51.718;8.938;2022-07-23T15:00:22;24.63;;;23.13;;
26690;SDS011;14307;51.718;8.938;2022-07-23T15:02:49;23.20;;;21.77;;
26690;SDS011;14307;51.718;8.938;2022-07-23T15:05:20;24.45;;;22.75;;
26690;SDS011;14307;51.718;8.938;2022-07-23T15:07:48;23.05;;;21.65;;
26690;SDS011;14307;51.718;8.938;2022-07-23T15:10:15;23.40;;;22.00;;
26690;SDS011;14307;51.718;8.938;2022-07-23T15:12:47;23.67;;;22.08;;
26690;SDS011;14307;51.718;8.938;2022-07-23T15:15:14;23.83;;;22.33;;
26690;SDS011;14307;51.718;8.938;2022-07-23T15:17:43;22.73;;;21.52;;
26690;SDS011;14307;51.718;8.938;2022-07-23T15:20:10;24.42;;;22.58;;
26690;SDS011;14307;51.718;8.938;2022-07-23T15:22:36;24.17;;;22.33;;
26690;SDS011;14307;51.718;8.938;2022-07-23T15:25:05;22.75;;;21.35;;
26690;SDS011;14307;51.718;8.938;2022-07-23T15:27:32;21.48;;;20.25;;
26690;SDS011;14307;51.718;8.938;2022-07-23T15:30:00;22.02;;;20.67;;
26690;SDS011;14307;51.718;8.938;2022-07-23T15:32:26;22.90;;;21.17;;